sensor_id;sensor_type;location;lat;lon;timestamp;P1;durP1;ratioP1;P2;durP2;ratioP2
12871;SDS011;6504;53.766;9.626;2023-02-28T00:00:40;8.30;;;7.40;;
12871;SDS011;6504;53.766;9.626;2023-02-28T00:03:09;10.00;;;8.10;;
12871;SDS011;6504;53.766;9.626;2023-02-28T00:05:37;9.97;;;7.37;;
12871;SDS011;6504;53.766;9.626;2023-02-28T00:08:07;8.40;;;7.17;;
12871;SDS011;6504;53.766;9.626;2023-02-28T00:10:35;8.43;;;7.50;;
12871;SDS011;6504;53.766;9.626;2023-02-28T00:13:04;8.87;;;7.03;;
12871;SDS011;6504;53.766;9.626;2023-02-28T00:15:33;9.13;;;8.23;;
12871;SDS011;6504;53.766;9.626;2023-02-28T00:18:01;8.97;;;7.87;;
12871;SDS011;6504;53.766;9.626;2023-02-28T00:20:30;9.00;;;8.10;;
12871;SDS011;6504;53.766;9.626;2023-02-28T00:22:58;8.67;;;7.73;;
12871;SDS011;6504;53.766;9.626;2023-02-28T00:25:27;9.80;;;8.07;;
12871;SDS011;6504;53.766;9.626;2023-02-28T00:27:56;9.43;;;8.10;;
12871;SDS011;6504;53.766;9.626;2023-02-28T00:30:24;9.33;;;7.53;;
12871;SDS011;6504;53.766;9.626;2023-02-28T00:32:52;8.33;;;7.40;;
12871;SDS011;6504;53.766;9.626;2023-02-28T00:35:20;9.20;;;8.00;;
12871;SDS011;6504;53.766;9.626;2023-02-28T00:37:48;10.70;;;7.83;;
12871;SDS011;6504;53.766;9.626;2023-02-28T00:40:17;8.60;;;7.03;;
12871;SDS011;6504;53.766;9.626;2023-02-28T00:42:46;10.00;;;7.30;;
12871;SDS011;6504;53.766;9.626;2023-02-28T00:45:14;8.60;;;7.33;;
12871;SDS011;6504;53.766;9.626;2023-02-28T00:47:42;8.13;;;7.27;;
12871;SDS011;6504;53.766;9.626;2023-02-28T00:50:11;7.40;;;6.70;;
12871;SDS011;6504;53.766;9.626;2023-02-28T00:52:39;9.37;;;7.67;;
12871;SDS011;6504;53.766;9.626;2023-02-28T00:55:07;7.77;;;7.07;;
12871;SDS011;6504;53.766;9.626;2023-02-28T00:57:36;8.93;;;7.23;;
12871;SDS011;6504;53.766;9.626;2023-02-28T01:00:06;9.30;;;7.77;;
12871;SDS011;6504;53.766;9.626;2023-02-28T01:02:35;7.67;;;6.93;;
12871;SDS011;6504;53.766;9.626;2023-02-28T01:05:03;9.03;;;7.90;;
12871;SDS011;6504;53.766;9.626;2023-02-28T01:07:32;7.23;;;6.47;;
12871;SDS011;6504;53.766;9.626;2023-02-28T01:10:00;7.73;;;6.93;;
12871;SDS011;6504;53.766;9.626;2023-02-28T01:12:28;8.57;;;7.57;;
12871;SDS011;6504;53.766;9.626;2023-02-28T01:14:56;7.53;;;6.73;;
12871;SDS011;6504;53.766;9.626;2023-02-28T01:17:25;9.03;;;6.83;;
12871;SDS011;6504;53.766;9.626;2023-02-28T01:19:53;8.17;;;6.73;;
12871;SDS011;6504;53.766;9.626;2023-02-28T01:22:22;7.37;;;6.50;;
12871;SDS011;6504;53.766;9.626;2023-02-28T01:24:50;7.83;;;6.03;;
12871;SDS011;6504;53.766;9.626;2023-02-28T01:27:19;7.43;;;6.57;;
12871;SDS011;6504;53.766;9.626;2023-02-28T01:29:47;8.40;;;7.20;;
12871;SDS011;6504;53.766;9.626;2023-02-28T01:32:15;7.67;;;6.87;;
12871;SDS011;6504;53.766;9.626;2023-02-28T01:34:45;8.80;;;7.13;;
12871;SDS011;6504;53.766;9.626;2023-02-28T01:37:13;8.63;;;6.80;;
12871;SDS011;6504;53.766;9.626;2023-02-28T01:39:41;7.20;;;6.30;;
12871;SDS011;6504;53.766;9.626;2023-02-28T01:42:09;8.23;;;6.00;;
12871;SDS011;6504;53.766;9.626;2023-02-28T01:45:15;6.40;;;5.33;;
12871;SDS011;6504;53.766;9.626;2023-02-28T01:47:47;5.90;;;5.30;;
12871;SDS011;6504;53.766;9.626;2023-02-28T01:50:19;6.53;;;5.40;;
12871;SDS011;6504;53.766;9.626;2023-02-28T01:52:50;6.77;;;5.67;;
12871;SDS011;6504;53.766;9.626;2023-02-28T01:55:21;6.20;;;4.90;;
12871;SDS011;6504;53.766;9.626;2023-02-28T01:57:55;7.57;;;5.20;;
12871;SDS011;6504;53.766;9.626;2023-02-28T02:00:26;6.57;;;4.63;;
12871;SDS011;6504;53.766;9.626;2023-02-28T02:02:56;5.60;;;4.80;;
12871;SDS011;6504;53.766;9.626;2023-02-28T02:05:29;6.37;;;4.33;;
12871;SDS011;6504;53.766;9.626;2023-02-28T02:08:00;6.70;;;5.17;;
12871;SDS011;6504;53.766;9.626;2023-02-28T02:10:31;5.80;;;4.60;;
12871;SDS011;6504;53.766;9.626;2023-02-28T02:13:13;5.47;;;4.17;;
12871;SDS011;6504;53.766;9.626;2023-02-28T02:15:52;5.00;;;4.23;;
12871;SDS011;6504;53.766;9.626;2023-02-28T02:18:30;6.17;;;4.60;;
12871;SDS011;6504;53.766;9.626;2023-02-28T02:30:45;7.50;;;4.20;;
12871;SDS011;6504;53.766;9.626;2023-02-28T02:36:41;4.87;;;4.10;;
12871;SDS011;6504;53.766;9.626;2023-02-28T02:39:16;6.30;;;3.93;;
12871;SDS011;6504;53.766;9.626;2023-02-28T02:41:51;4.50;;;3.53;;
12871;SDS011;6504;53.766;9.626;2023-02-28T02:44:21;4.97;;;4.10;;
12871;SDS011;6504;53.766;9.626;2023-02-28T02:46:54;5.13;;;3.90;;
12871;SDS011;6504;53.766;9.626;2023-02-28T02:49:29;4.13;;;3.60;;
12871;SDS011;6504;53.766;9.626;2023-02-28T02:52:00;5.37;;;3.50;;
12871;SDS011;6504;53.766;9.626;2023-02-28T02:54:31;4.47;;;3.60;;
12871;SDS011;6504;53.766;9.626;2023-02-28T02:57:04;5.13;;;4.30;;
12871;SDS011;6504;53.766;9.626;2023-02-28T02:59:35;5.17;;;4.03;;
12871;SDS011;6504;53.766;9.626;2023-02-28T03:02:06;5.57;;;3.90;;
12871;SDS011;6504;53.766;9.626;2023-02-28T03:04:40;6.37;;;4.20;;
12871;SDS011;6504;53.766;9.626;2023-02-28T03:07:12;6.57;;;4.23;;
12871;SDS011;6504;53.766;9.626;2023-02-28T03:09:40;5.60;;;4.40;;
12871;SDS011;6504;53.766;9.626;2023-02-28T03:12:17;7.17;;;4.47;;
12871;SDS011;6504;53.766;9.626;2023-02-28T03:14:49;4.60;;;4.00;;
12871;SDS011;6504;53.766;9.626;2023-02-28T03:17:25;5.00;;;3.90;;
12871;SDS011;6504;53.766;9.626;2023-02-28T03:20:06;6.37;;;4.73;;
12871;SDS011;6504;53.766;9.626;2023-02-28T03:22:45;5.10;;;4.13;;
12871;SDS011;6504;53.766;9.626;2023-02-28T03:25:20;4.13;;;3.53;;
12871;SDS011;6504;53.766;9.626;2023-02-28T03:28:00;5.53;;;4.00;;
12871;SDS011;6504;53.766;9.626;2023-02-28T03:30:34;5.00;;;3.50;;
12871;SDS011;6504;53.766;9.626;2023-02-28T03:33:09;5.07;;;3.90;;
12871;SDS011;6504;53.766;9.626;2023-02-28T03:35:43;4.90;;;3.20;;
12871;SDS011;6504;53.766;9.626;2023-02-28T03:38:18;4.53;;;3.63;;
12871;SDS011;6504;53.766;9.626;2023-02-28T03:40:50;3.73;;;3.43;;
12871;SDS011;6504;53.766;9.626;2023-02-28T03:43:23;4.13;;;3.30;;
12871;SDS011;6504;53.766;9.626;2023-02-28T03:45:54;4.10;;;3.13;;
12871;SDS011;6504;53.766;9.626;2023-02-28T03:48:24;3.73;;;3.10;;
12871;SDS011;6504;53.766;9.626;2023-02-28T03:50:59;3.30;;;3.00;;
12871;SDS011;6504;53.766;9.626;2023-02-28T03:53:30;3.70;;;3.20;;
12871;SDS011;6504;53.766;9.626;2023-02-28T03:56:01;5.67;;;3.00;;
12871;SDS011;6504;53.766;9.626;2023-02-28T03:58:35;5.10;;;3.10;;
12871;SDS011;6504;53.766;9.626;2023-02-28T04:01:09;3.77;;;3.43;;
12871;SDS011;6504;53.766;9.626;2023-02-28T04:03:42;4.83;;;3.00;;
12871;SDS011;6504;53.766;9.626;2023-02-28T04:06:14;5.47;;;3.30;;
12871;SDS011;6504;53.766;9.626;2023-02-28T04:08:45;4.53;;;3.17;;
12871;SDS011;6504;53.766;9.626;2023-02-28T04:11:16;3.97;;;2.60;;
12871;SDS011;6504;53.766;9.626;2023-02-28T04:13:48;4.40;;;3.07;;
12871;SDS011;6504;53.766;9.626;2023-02-28T04:16:16;3.97;;;2.70;;
12871;SDS011;6504;53.766;9.626;2023-02-28T04:19:00;4.60;;;3.20;;
12871;SDS011;6504;53.766;9.626;2023-02-28T04:21:31;9.40;;;6.80;;
12871;SDS011;6504;53.766;9.626;2023-02-28T04:24:00;21.13;;;14.40;;
12871;SDS011;6504;53.766;9.626;2023-02-28T04:26:29;19.50;;;13.50;;
12871;SDS011;6504;53.766;9.626;2023-02-28T04:28:58;14.60;;;10.67;;
12871;SDS011;6504;53.766;9.626;2023-02-28T04:31:26;18.23;;;11.77;;
12871;SDS011;6504;53.766;9.626;2023-02-28T04:33:54;13.80;;;10.00;;
12871;SDS011;6504;53.766;9.626;2023-02-28T04:36:23;11.47;;;7.30;;
12871;SDS011;6504;53.766;9.626;2023-02-28T04:38:52;10.13;;;6.53;;
12871;SDS011;6504;53.766;9.626;2023-02-28T04:41:21;7.73;;;4.60;;
12871;SDS011;6504;53.766;9.626;2023-02-28T04:43:50;6.40;;;4.07;;
12871;SDS011;6504;53.766;9.626;2023-02-28T04:46:19;4.90;;;3.57;;
12871;SDS011;6504;53.766;9.626;2023-02-28T04:48:47;3.47;;;3.17;;
12871;SDS011;6504;53.766;9.626;2023-02-28T04:51:16;3.57;;;2.70;;
12871;SDS011;6504;53.766;9.626;2023-02-28T04:53:45;3.30;;;2.83;;
12871;SDS011;6504;53.766;9.626;2023-02-28T04:56:16;4.43;;;2.93;;
12871;SDS011;6504;53.766;9.626;2023-02-28T04:58:44;3.47;;;2.70;;
12871;SDS011;6504;53.766;9.626;2023-02-28T05:01:17;2.90;;;2.63;;
12871;SDS011;6504;53.766;9.626;2023-02-28T05:03:48;3.73;;;2.73;;
12871;SDS011;6504;53.766;9.626;2023-02-28T05:06:17;3.23;;;2.60;;
12871;SDS011;6504;53.766;9.626;2023-02-28T05:08:46;3.43;;;2.93;;
12871;SDS011;6504;53.766;9.626;2023-02-28T05:11:17;4.33;;;2.87;;
12871;SDS011;6504;53.766;9.626;2023-02-28T05:13:46;3.93;;;2.87;;
12871;SDS011;6504;53.766;9.626;2023-02-28T05:16:15;3.87;;;3.33;;
12871;SDS011;6504;53.766;9.626;2023-02-28T05:18:44;4.07;;;2.80;;
12871;SDS011;6504;53.766;9.626;2023-02-28T05:21:20;4.30;;;2.80;;
12871;SDS011;6504;53.766;9.626;2023-02-28T05:23:52;4.23;;;2.90;;
12871;SDS011;6504;53.766;9.626;2023-02-28T05:26:22;5.13;;;3.30;;
12871;SDS011;6504;53.766;9.626;2023-02-28T05:28:51;4.67;;;3.10;;
12871;SDS011;6504;53.766;9.626;2023-02-28T05:31:19;4.80;;;3.07;;
12871;SDS011;6504;53.766;9.626;2023-02-28T05:33:48;5.23;;;3.30;;
12871;SDS011;6504;53.766;9.626;2023-02-28T05:36:16;5.80;;;3.73;;
12871;SDS011;6504;53.766;9.626;2023-02-28T05:38:45;5.40;;;3.23;;
12871;SDS011;6504;53.766;9.626;2023-02-28T05:41:14;4.00;;;3.60;;
12871;SDS011;6504;53.766;9.626;2023-02-28T05:43:44;4.70;;;3.47;;
12871;SDS011;6504;53.766;9.626;2023-02-28T05:46:13;5.83;;;3.70;;
12871;SDS011;6504;53.766;9.626;2023-02-28T05:48:41;6.03;;;3.33;;
12871;SDS011;6504;53.766;9.626;2023-02-28T05:51:12;4.60;;;3.70;;
12871;SDS011;6504;53.766;9.626;2023-02-28T05:53:40;5.57;;;4.20;;
12871;SDS011;6504;53.766;9.626;2023-02-28T05:56:09;4.27;;;3.77;;
12871;SDS011;6504;53.766;9.626;2023-02-28T05:58:37;6.43;;;4.00;;
12871;SDS011;6504;53.766;9.626;2023-02-28T06:01:20;4.40;;;4.00;;
12871;SDS011;6504;53.766;9.626;2023-02-28T06:03:57;5.87;;;4.13;;
12871;SDS011;6504;53.766;9.626;2023-02-28T06:06:25;5.23;;;3.87;;
12871;SDS011;6504;53.766;9.626;2023-02-28T06:08:53;6.40;;;4.10;;
12871;SDS011;6504;53.766;9.626;2023-02-28T06:11:21;5.30;;;3.53;;
12871;SDS011;6504;53.766;9.626;2023-02-28T06:13:54;7.13;;;4.20;;
12871;SDS011;6504;53.766;9.626;2023-02-28T06:16:24;4.50;;;4.07;;
12871;SDS011;6504;53.766;9.626;2023-02-28T06:18:53;7.00;;;4.50;;
12871;SDS011;6504;53.766;9.626;2023-02-28T06:21:22;5.57;;;4.17;;
12871;SDS011;6504;53.766;9.626;2023-02-28T06:23:50;5.90;;;4.97;;
12871;SDS011;6504;53.766;9.626;2023-02-28T06:26:18;6.00;;;4.20;;
12871;SDS011;6504;53.766;9.626;2023-02-28T06:28:46;5.80;;;4.30;;
12871;SDS011;6504;53.766;9.626;2023-02-28T06:31:15;6.00;;;4.73;;
12871;SDS011;6504;53.766;9.626;2023-02-28T06:33:46;7.27;;;4.33;;
12871;SDS011;6504;53.766;9.626;2023-02-28T06:36:15;6.37;;;4.30;;
12871;SDS011;6504;53.766;9.626;2023-02-28T06:38:44;9.53;;;4.30;;
12871;SDS011;6504;53.766;9.626;2023-02-28T06:41:12;7.97;;;4.77;;
12871;SDS011;6504;53.766;9.626;2023-02-28T06:43:41;6.27;;;4.40;;
12871;SDS011;6504;53.766;9.626;2023-02-28T06:46:11;6.43;;;4.40;;
12871;SDS011;6504;53.766;9.626;2023-02-28T06:48:40;4.73;;;4.03;;
12871;SDS011;6504;53.766;9.626;2023-02-28T06:51:12;5.20;;;4.70;;
12871;SDS011;6504;53.766;9.626;2023-02-28T06:53:42;5.23;;;4.30;;
12871;SDS011;6504;53.766;9.626;2023-02-28T06:56:11;5.40;;;4.00;;
12871;SDS011;6504;53.766;9.626;2023-02-28T06:58:40;6.83;;;4.03;;
12871;SDS011;6504;53.766;9.626;2023-02-28T07:01:09;6.60;;;4.20;;
12871;SDS011;6504;53.766;9.626;2023-02-28T07:03:37;4.07;;;3.67;;
12871;SDS011;6504;53.766;9.626;2023-02-28T07:06:05;4.97;;;4.20;;
12871;SDS011;6504;53.766;9.626;2023-02-28T07:08:34;5.83;;;4.10;;
12871;SDS011;6504;53.766;9.626;2023-02-28T07:11:03;6.00;;;3.40;;
12871;SDS011;6504;53.766;9.626;2023-02-28T07:13:31;6.80;;;4.10;;
12871;SDS011;6504;53.766;9.626;2023-02-28T07:16:00;6.43;;;4.27;;
12871;SDS011;6504;53.766;9.626;2023-02-28T07:18:30;7.30;;;4.20;;
12871;SDS011;6504;53.766;9.626;2023-02-28T07:21:01;5.20;;;3.70;;
12871;SDS011;6504;53.766;9.626;2023-02-28T07:23:29;6.33;;;3.80;;
12871;SDS011;6504;53.766;9.626;2023-02-28T07:25:59;6.07;;;4.10;;
12871;SDS011;6504;53.766;9.626;2023-02-28T07:28:27;4.17;;;3.77;;
12871;SDS011;6504;53.766;9.626;2023-02-28T07:30:55;4.20;;;3.47;;
12871;SDS011;6504;53.766;9.626;2023-02-28T07:33:23;5.67;;;3.40;;
12871;SDS011;6504;53.766;9.626;2023-02-28T07:35:51;4.07;;;3.67;;
12871;SDS011;6504;53.766;9.626;2023-02-28T07:38:19;5.07;;;3.80;;
12871;SDS011;6504;53.766;9.626;2023-02-28T07:40:47;6.17;;;3.60;;
12871;SDS011;6504;53.766;9.626;2023-02-28T07:43:16;8.00;;;4.20;;
12871;SDS011;6504;53.766;9.626;2023-02-28T07:45:44;3.93;;;3.50;;
12871;SDS011;6504;53.766;9.626;2023-02-28T07:48:12;10.47;;;4.73;;
12871;SDS011;6504;53.766;9.626;2023-02-28T07:50:40;11.53;;;5.27;;
12871;SDS011;6504;53.766;9.626;2023-02-28T07:53:08;7.87;;;4.20;;
12871;SDS011;6504;53.766;9.626;2023-02-28T07:55:36;5.30;;;4.10;;
12871;SDS011;6504;53.766;9.626;2023-02-28T07:58:04;4.40;;;3.80;;
12871;SDS011;6504;53.766;9.626;2023-02-28T08:00:34;4.90;;;3.97;;
12871;SDS011;6504;53.766;9.626;2023-02-28T08:03:02;6.90;;;4.03;;
12871;SDS011;6504;53.766;9.626;2023-02-28T08:05:30;5.20;;;3.60;;
12871;SDS011;6504;53.766;9.626;2023-02-28T08:07:58;4.13;;;3.30;;
12871;SDS011;6504;53.766;9.626;2023-02-28T08:10:26;5.87;;;3.80;;
12871;SDS011;6504;53.766;9.626;2023-02-28T08:12:54;4.73;;;3.30;;
12871;SDS011;6504;53.766;9.626;2023-02-28T08:15:22;4.30;;;3.30;;
12871;SDS011;6504;53.766;9.626;2023-02-28T08:17:51;5.27;;;3.87;;
12871;SDS011;6504;53.766;9.626;2023-02-28T08:20:19;5.20;;;3.47;;
12871;SDS011;6504;53.766;9.626;2023-02-28T08:22:47;5.70;;;3.80;;
12871;SDS011;6504;53.766;9.626;2023-02-28T08:25:15;3.67;;;3.37;;
12871;SDS011;6504;53.766;9.626;2023-02-28T08:27:44;4.53;;;3.77;;
12871;SDS011;6504;53.766;9.626;2023-02-28T08:30:12;3.87;;;3.50;;
12871;SDS011;6504;53.766;9.626;2023-02-28T08:32:41;4.07;;;3.63;;
12871;SDS011;6504;53.766;9.626;2023-02-28T08:35:11;4.93;;;3.50;;
12871;SDS011;6504;53.766;9.626;2023-02-28T08:37:39;4.17;;;3.57;;
12871;SDS011;6504;53.766;9.626;2023-02-28T08:40:07;4.57;;;3.47;;
12871;SDS011;6504;53.766;9.626;2023-02-28T08:42:37;4.20;;;3.67;;
12871;SDS011;6504;53.766;9.626;2023-02-28T08:45:05;5.43;;;3.70;;
12871;SDS011;6504;53.766;9.626;2023-02-28T08:47:34;4.43;;;3.77;;
12871;SDS011;6504;53.766;9.626;2023-02-28T08:50:02;5.30;;;3.80;;
12871;SDS011;6504;53.766;9.626;2023-02-28T08:52:31;4.87;;;3.80;;
12871;SDS011;6504;53.766;9.626;2023-02-28T08:54:59;5.83;;;3.67;;
12871;SDS011;6504;53.766;9.626;2023-02-28T08:57:27;4.93;;;4.50;;
12871;SDS011;6504;53.766;9.626;2023-02-28T08:59:55;6.37;;;3.53;;
12871;SDS011;6504;53.766;9.626;2023-02-28T09:02:23;5.33;;;4.23;;
12871;SDS011;6504;53.766;9.626;2023-02-28T09:04:51;4.10;;;3.80;;
12871;SDS011;6504;53.766;9.626;2023-02-28T09:07:19;5.03;;;3.50;;
12871;SDS011;6504;53.766;9.626;2023-02-28T09:09:49;4.33;;;3.10;;
12871;SDS011;6504;53.766;9.626;2023-02-28T09:12:24;3.10;;;2.80;;
12871;SDS011;6504;53.766;9.626;2023-02-28T09:14:55;3.43;;;2.80;;
12871;SDS011;6504;53.766;9.626;2023-02-28T09:17:23;3.37;;;2.60;;
12871;SDS011;6504;53.766;9.626;2023-02-28T09:19:56;4.40;;;2.53;;
12871;SDS011;6504;53.766;9.626;2023-02-28T09:22:24;4.13;;;2.60;;
12871;SDS011;6504;53.766;9.626;2023-02-28T09:24:54;4.27;;;2.60;;
12871;SDS011;6504;53.766;9.626;2023-02-28T09:27:21;2.60;;;2.40;;
12871;SDS011;6504;53.766;9.626;2023-02-28T09:29:50;4.13;;;2.47;;
12871;SDS011;6504;53.766;9.626;2023-02-28T09:32:18;5.03;;;2.47;;
12871;SDS011;6504;53.766;9.626;2023-02-28T09:34:46;3.63;;;2.53;;
12871;SDS011;6504;53.766;9.626;2023-02-28T09:37:14;3.30;;;2.33;;
12871;SDS011;6504;53.766;9.626;2023-02-28T09:39:42;4.33;;;2.83;;
12871;SDS011;6504;53.766;9.626;2023-02-28T09:42:13;4.97;;;2.47;;
12871;SDS011;6504;53.766;9.626;2023-02-28T09:44:48;3.20;;;2.77;;
12871;SDS011;6504;53.766;9.626;2023-02-28T09:47:18;3.57;;;2.60;;
12871;SDS011;6504;53.766;9.626;2023-02-28T09:49:54;2.73;;;2.50;;
12871;SDS011;6504;53.766;9.626;2023-02-28T09:52:26;4.23;;;2.90;;
12871;SDS011;6504;53.766;9.626;2023-02-28T09:54:59;3.07;;;2.70;;
12871;SDS011;6504;53.766;9.626;2023-02-28T09:57:45;4.13;;;2.87;;
12871;SDS011;6504;53.766;9.626;2023-02-28T10:00:14;3.03;;;2.40;;
12871;SDS011;6504;53.766;9.626;2023-02-28T10:02:49;3.53;;;2.60;;
12871;SDS011;6504;53.766;9.626;2023-02-28T10:05:26;5.70;;;3.00;;
12871;SDS011;6504;53.766;9.626;2023-02-28T10:08:00;4.63;;;2.83;;
12871;SDS011;6504;53.766;9.626;2023-02-28T10:10:35;4.00;;;2.80;;
12871;SDS011;6504;53.766;9.626;2023-02-28T10:13:12;2.60;;;2.40;;
12871;SDS011;6504;53.766;9.626;2023-02-28T10:15:47;3.70;;;2.80;;
12871;SDS011;6504;53.766;9.626;2023-02-28T10:18:21;2.97;;;2.50;;
12871;SDS011;6504;53.766;9.626;2023-02-28T10:20:51;4.17;;;3.20;;
12871;SDS011;6504;53.766;9.626;2023-02-28T10:23:23;2.90;;;2.53;;
12871;SDS011;6504;53.766;9.626;2023-02-28T10:25:57;5.40;;;2.57;;
12871;SDS011;6504;53.766;9.626;2023-02-28T10:28:29;4.17;;;2.70;;
12871;SDS011;6504;53.766;9.626;2023-02-28T10:30:58;3.47;;;2.60;;
12871;SDS011;6504;53.766;9.626;2023-02-28T10:33:28;3.53;;;2.53;;
12871;SDS011;6504;53.766;9.626;2023-02-28T10:35:58;4.67;;;2.57;;
12871;SDS011;6504;53.766;9.626;2023-02-28T10:38:27;4.77;;;2.50;;
12871;SDS011;6504;53.766;9.626;2023-02-28T10:41:06;3.67;;;2.43;;
12871;SDS011;6504;53.766;9.626;2023-02-28T10:43:37;5.67;;;2.87;;
12871;SDS011;6504;53.766;9.626;2023-02-28T10:46:10;3.17;;;2.37;;
12871;SDS011;6504;53.766;9.626;2023-02-28T10:48:42;2.93;;;2.33;;
12871;SDS011;6504;53.766;9.626;2023-02-28T10:51:14;3.63;;;2.33;;
12871;SDS011;6504;53.766;9.626;2023-02-28T10:53:46;3.53;;;2.67;;
12871;SDS011;6504;53.766;9.626;2023-02-28T10:56:27;3.93;;;2.07;;
12871;SDS011;6504;53.766;9.626;2023-02-28T10:58:59;2.90;;;2.00;;
12871;SDS011;6504;53.766;9.626;2023-02-28T11:01:35;4.03;;;2.30;;
12871;SDS011;6504;53.766;9.626;2023-02-28T11:04:16;2.60;;;1.93;;
12871;SDS011;6504;53.766;9.626;2023-02-28T11:06:45;2.73;;;2.07;;
12871;SDS011;6504;53.766;9.626;2023-02-28T11:09:16;2.40;;;2.07;;
12871;SDS011;6504;53.766;9.626;2023-02-28T11:11:50;3.60;;;2.10;;
12871;SDS011;6504;53.766;9.626;2023-02-28T11:14:20;3.80;;;2.17;;
12871;SDS011;6504;53.766;9.626;2023-02-28T11:16:51;2.23;;;1.80;;
12871;SDS011;6504;53.766;9.626;2023-02-28T11:19:22;4.63;;;2.00;;
12871;SDS011;6504;53.766;9.626;2023-02-28T11:21:54;4.60;;;2.13;;
12871;SDS011;6504;53.766;9.626;2023-02-28T11:24:26;2.20;;;1.80;;
12871;SDS011;6504;53.766;9.626;2023-02-28T11:26:56;2.63;;;2.43;;
12871;SDS011;6504;53.766;9.626;2023-02-28T11:29:26;2.57;;;2.13;;
12871;SDS011;6504;53.766;9.626;2023-02-28T11:32:03;3.90;;;2.00;;
12871;SDS011;6504;53.766;9.626;2023-02-28T11:34:40;4.60;;;2.73;;
12871;SDS011;6504;53.766;9.626;2023-02-28T11:37:12;2.17;;;1.97;;
12871;SDS011;6504;53.766;9.626;2023-02-28T11:39:43;1.93;;;1.83;;
12871;SDS011;6504;53.766;9.626;2023-02-28T11:45:15;3.20;;;2.00;;
12871;SDS011;6504;53.766;9.626;2023-02-28T11:47:56;2.50;;;2.00;;
12871;SDS011;6504;53.766;9.626;2023-02-28T11:50:36;2.40;;;2.20;;
12871;SDS011;6504;53.766;9.626;2023-02-28T11:53:14;2.87;;;1.80;;
12871;SDS011;6504;53.766;9.626;2023-02-28T11:55:52;3.37;;;2.20;;
12871;SDS011;6504;53.766;9.626;2023-02-28T11:58:29;2.23;;;1.80;;
12871;SDS011;6504;53.766;9.626;2023-02-28T12:01:10;3.87;;;2.20;;
12871;SDS011;6504;53.766;9.626;2023-02-28T12:03:56;3.83;;;2.03;;
12871;SDS011;6504;53.766;9.626;2023-02-28T12:06:32;2.57;;;2.13;;
12871;SDS011;6504;53.766;9.626;2023-02-28T12:09:20;3.33;;;2.20;;
12871;SDS011;6504;53.766;9.626;2023-02-28T12:12:02;3.60;;;2.20;;
12871;SDS011;6504;53.766;9.626;2023-02-28T12:14:47;3.30;;;2.10;;
12871;SDS011;6504;53.766;9.626;2023-02-28T12:17:32;6.00;;;2.07;;
12871;SDS011;6504;53.766;9.626;2023-02-28T12:20:13;2.93;;;2.20;;
12871;SDS011;6504;53.766;9.626;2023-02-28T12:22:49;2.87;;;2.30;;
12871;SDS011;6504;53.766;9.626;2023-02-28T12:28:33;2.83;;;2.27;;
12871;SDS011;6504;53.766;9.626;2023-02-28T12:31:08;4.90;;;2.10;;
12871;SDS011;6504;53.766;9.626;2023-02-28T12:33:43;3.10;;;2.53;;
12871;SDS011;6504;53.766;9.626;2023-02-28T12:36:15;2.40;;;2.20;;
12871;SDS011;6504;53.766;9.626;2023-02-28T12:38:47;3.00;;;2.27;;
12871;SDS011;6504;53.766;9.626;2023-02-28T12:41:22;2.73;;;2.37;;
12871;SDS011;6504;53.766;9.626;2023-02-28T12:43:58;3.47;;;2.13;;
12871;SDS011;6504;53.766;9.626;2023-02-28T12:46:30;2.60;;;2.17;;
12871;SDS011;6504;53.766;9.626;2023-02-28T12:49:06;3.27;;;2.30;;
12871;SDS011;6504;53.766;9.626;2023-02-28T12:51:37;4.73;;;2.30;;
12871;SDS011;6504;53.766;9.626;2023-02-28T12:54:09;3.30;;;2.40;;
12871;SDS011;6504;53.766;9.626;2023-02-28T12:56:43;4.20;;;2.53;;
12871;SDS011;6504;53.766;9.626;2023-02-28T12:59:18;2.33;;;2.13;;
12871;SDS011;6504;53.766;9.626;2023-02-28T13:02:01;2.73;;;2.17;;
12871;SDS011;6504;53.766;9.626;2023-02-28T13:05:00;4.53;;;2.30;;
12871;SDS011;6504;53.766;9.626;2023-02-28T13:07:42;3.80;;;2.30;;
12871;SDS011;6504;53.766;9.626;2023-02-28T13:10:38;2.70;;;2.03;;
12871;SDS011;6504;53.766;9.626;2023-02-28T13:13:11;3.33;;;2.03;;
12871;SDS011;6504;53.766;9.626;2023-02-28T13:15:56;2.93;;;2.30;;
12871;SDS011;6504;53.766;9.626;2023-02-28T13:18:33;2.93;;;2.33;;
12871;SDS011;6504;53.766;9.626;2023-02-28T13:21:08;3.20;;;2.07;;
12871;SDS011;6504;53.766;9.626;2023-02-28T13:24:01;2.80;;;2.20;;
12871;SDS011;6504;53.766;9.626;2023-02-28T13:29:36;3.70;;;2.33;;
12871;SDS011;6504;53.766;9.626;2023-02-28T13:35:12;2.57;;;2.17;;
12871;SDS011;6504;53.766;9.626;2023-02-28T13:38:32;3.17;;;2.37;;
12871;SDS011;6504;53.766;9.626;2023-02-28T13:44:10;4.67;;;2.30;;
12871;SDS011;6504;53.766;9.626;2023-02-28T13:49:44;2.90;;;2.20;;
12871;SDS011;6504;53.766;9.626;2023-02-28T13:52:14;2.77;;;2.37;;
12871;SDS011;6504;53.766;9.626;2023-02-28T13:54:53;4.40;;;2.20;;
12871;SDS011;6504;53.766;9.626;2023-02-28T13:57:45;3.77;;;2.57;;
12871;SDS011;6504;53.766;9.626;2023-02-28T14:00:29;2.97;;;2.10;;
12871;SDS011;6504;53.766;9.626;2023-02-28T14:03:17;3.10;;;2.07;;
12871;SDS011;6504;53.766;9.626;2023-02-28T14:06:07;2.80;;;1.93;;
12871;SDS011;6504;53.766;9.626;2023-02-28T14:08:44;3.27;;;2.20;;
12871;SDS011;6504;53.766;9.626;2023-02-28T14:11:28;10.17;;;2.37;;
12871;SDS011;6504;53.766;9.626;2023-02-28T14:13:59;3.87;;;2.40;;
12871;SDS011;6504;53.766;9.626;2023-02-28T14:16:34;2.23;;;1.93;;
12871;SDS011;6504;53.766;9.626;2023-02-28T14:19:09;3.17;;;2.87;;
12871;SDS011;6504;53.766;9.626;2023-02-28T14:21:43;3.60;;;2.40;;
12871;SDS011;6504;53.766;9.626;2023-02-28T14:24:34;3.37;;;2.20;;
12871;SDS011;6504;53.766;9.626;2023-02-28T14:27:22;2.70;;;2.07;;
12871;SDS011;6504;53.766;9.626;2023-02-28T14:33:22;2.50;;;2.30;;
12871;SDS011;6504;53.766;9.626;2023-02-28T14:35:57;2.57;;;2.13;;
12871;SDS011;6504;53.766;9.626;2023-02-28T14:38:36;3.90;;;2.50;;
12871;SDS011;6504;53.766;9.626;2023-02-28T14:41:13;3.43;;;2.40;;
12871;SDS011;6504;53.766;9.626;2023-02-28T14:43:53;3.50;;;2.13;;
12871;SDS011;6504;53.766;9.626;2023-02-28T14:46:23;4.60;;;2.60;;
12871;SDS011;6504;53.766;9.626;2023-02-28T14:48:54;3.73;;;2.30;;
12871;SDS011;6504;53.766;9.626;2023-02-28T14:51:23;2.47;;;2.00;;
12871;SDS011;6504;53.766;9.626;2023-02-28T14:53:52;2.87;;;1.93;;
12871;SDS011;6504;53.766;9.626;2023-02-28T14:56:27;2.43;;;2.10;;
12871;SDS011;6504;53.766;9.626;2023-02-28T14:59:01;2.90;;;2.10;;
12871;SDS011;6504;53.766;9.626;2023-02-28T15:01:30;2.73;;;2.03;;
12871;SDS011;6504;53.766;9.626;2023-02-28T15:04:00;3.57;;;2.23;;
12871;SDS011;6504;53.766;9.626;2023-02-28T15:06:30;4.77;;;2.80;;
12871;SDS011;6504;53.766;9.626;2023-02-28T15:09:09;4.00;;;2.60;;
12871;SDS011;6504;53.766;9.626;2023-02-28T15:11:38;2.77;;;2.40;;
12871;SDS011;6504;53.766;9.626;2023-02-28T15:14:12;3.33;;;2.23;;
12871;SDS011;6504;53.766;9.626;2023-02-28T15:16:45;2.77;;;2.20;;
12871;SDS011;6504;53.766;9.626;2023-02-28T15:19:19;2.20;;;2.00;;
12871;SDS011;6504;53.766;9.626;2023-02-28T15:21:51;2.43;;;1.97;;
12871;SDS011;6504;53.766;9.626;2023-02-28T15:24:25;3.03;;;2.03;;
12871;SDS011;6504;53.766;9.626;2023-02-28T15:26:59;2.57;;;2.00;;
12871;SDS011;6504;53.766;9.626;2023-02-28T15:29:37;3.87;;;2.17;;
12871;SDS011;6504;53.766;9.626;2023-02-28T15:32:20;3.87;;;2.43;;
12871;SDS011;6504;53.766;9.626;2023-02-28T15:34:52;3.13;;;2.20;;
12871;SDS011;6504;53.766;9.626;2023-02-28T15:37:27;3.73;;;2.10;;
12871;SDS011;6504;53.766;9.626;2023-02-28T15:40:04;2.63;;;2.30;;
12871;SDS011;6504;53.766;9.626;2023-02-28T15:42:39;3.50;;;2.30;;
12871;SDS011;6504;53.766;9.626;2023-02-28T15:45:31;2.43;;;2.20;;
12871;SDS011;6504;53.766;9.626;2023-02-28T15:48:04;2.50;;;2.17;;
12871;SDS011;6504;53.766;9.626;2023-02-28T15:50:39;3.40;;;2.47;;
12871;SDS011;6504;53.766;9.626;2023-02-28T15:53:12;3.00;;;2.40;;
12871;SDS011;6504;53.766;9.626;2023-02-28T15:55:42;2.43;;;2.23;;
12871;SDS011;6504;53.766;9.626;2023-02-28T15:58:11;2.53;;;2.03;;
12871;SDS011;6504;53.766;9.626;2023-02-28T16:00:43;3.87;;;2.30;;
12871;SDS011;6504;53.766;9.626;2023-02-28T16:03:25;3.87;;;2.37;;
12871;SDS011;6504;53.766;9.626;2023-02-28T16:08:52;2.70;;;1.90;;